Hollis Crossroads, Alabama
Current Conditions -  °F | °C
As of 6:53 PM on Thursday 27 Nov 2014 (Local Time) from KANB Reporting Station
Clear Clear  
Wind Chill: 40°   Ceiling: Unl
Heat Index: 40°   Visibility: 10mi
Dew Point: 26°   Wind: 0mph
Humidity: 58%   Direction: NA
Pressure: 30.41"   Gusts: NA
Location:  33.6126°N, 85.6035°W
Report Text: KANB 280053Z AUTO 00000KT 10SM CLR 04/M03 A3041 RMK AO2 SLP305 T00441033
Loading
Personal Weather Stations






























Interactive Weather Map New forecast layout! Learn more

10-Day Weather Forecast

Advertisements
Track Severe Weather on mobile